createdAt,value
2023-04-25T00:00:16.734Z,86.6
2023-04-25T00:01:17.283Z,86.4
2023-04-25T00:02:17.340Z,86.0
2023-04-25T00:03:17.181Z,86.2
2023-04-25T00:04:17.483Z,86.4
2023-04-25T00:05:17.472Z,86.2
2023-04-25T00:06:17.086Z,86.1
2023-04-25T00:07:16.652Z,86.1
2023-04-25T00:08:17.228Z,86.2
2023-04-25T00:09:16.785Z,86.2
2023-04-25T00:10:17.341Z,85.7
2023-04-25T00:11:16.890Z,85.8
2023-04-25T00:12:17.290Z,85.9
2023-04-25T00:13:16.828Z,86.1
2023-04-25T00:14:17.393Z,85.3
2023-04-25T00:15:16.920Z,85.6
2023-04-25T00:16:17.552Z,85.3
2023-04-25T00:17:17.246Z,85.7
2023-04-25T00:18:16.803Z,85.4
2023-04-25T00:19:17.384Z,85.9
2023-04-25T00:20:16.982Z,85.5
2023-04-25T00:21:16.510Z,85.8
2023-04-25T00:22:17.200Z,85.3
2023-04-25T00:23:16.742Z,85.4
2023-04-25T00:24:17.316Z,85.2
2023-04-25T00:25:16.882Z,85.1
2023-04-25T00:26:17.512Z,85.4
2023-04-25T00:27:17.118Z,85.5
2023-04-25T00:28:16.686Z,85.4
2023-04-25T00:29:17.239Z,85.6
2023-04-25T00:30:16.824Z,85.8
2023-04-25T00:31:17.476Z,85.9
2023-04-25T00:32:17.292Z,85.7
2023-04-25T00:33:16.853Z,85.6
2023-04-25T00:34:17.387Z,85.6
2023-04-25T00:35:16.962Z,86.0
2023-04-25T00:36:16.541Z,86.3
2023-04-25T00:37:17.106Z,86.4
2023-04-25T00:38:16.657Z,86.7
2023-04-25T00:39:17.215Z,86.7
2023-04-25T00:40:16.764Z,86.7
2023-04-25T00:41:17.305Z,86.9
2023-04-25T00:42:17.208Z,87.1
2023-04-25T00:43:16.756Z,87.1
2023-04-25T00:44:17.360Z,87.1
2023-04-25T00:45:17.059Z,87.5
2023-04-25T00:46:16.796Z,87.3
2023-04-25T00:47:17.409Z,87.6
2023-04-25T00:48:16.973Z,87.6
2023-04-25T00:49:16.608Z,87.8
2023-04-25T00:50:17.154Z,88.0
2023-04-25T00:51:16.717Z,87.9
2023-04-25T00:52:16.786Z,87.5
2023-04-25T00:53:17.322Z,87.5
2023-04-25T00:54:16.900Z,87.5
2023-04-25T00:55:17.473Z,87.3
2023-04-25T00:56:17.047Z,87.4
2023-04-25T00:57:16.637Z,87.4
2023-04-25T00:58:17.184Z,87.4
2023-04-25T00:59:16.717Z,87.8
2023-04-25T01:00:17.255Z,87.6
2023-04-25T01:01:16.875Z,87.2
2023-04-25T01:02:17.664Z,87.0
2023-04-25T01:03:17.651Z,86.7
2023-04-25T01:04:17.584Z,86.5
2023-04-25T01:05:17.225Z,86.5
2023-04-25T01:06:16.780Z,86.8
2023-04-25T01:07:17.387Z,86.9
2023-04-25T01:08:16.908Z,86.1
2023-04-25T01:09:17.471Z,86.2
2023-04-25T01:10:17.012Z,86.2
2023-04-25T01:11:16.541Z,86.2
2023-04-25T01:12:17.516Z,86.8
2023-04-25T01:13:17.065Z,86.7
2023-04-25T01:14:16.640Z,86.8
2023-04-25T01:15:17.178Z,86.3
2023-04-25T01:16:16.944Z,86.4
2023-04-25T01:17:16.527Z,85.7
2023-04-25T01:18:17.065Z,85.7
2023-04-25T01:19:16.636Z,85.5
2023-04-25T01:20:17.182Z,85.6
2023-04-25T01:21:16.743Z,85.8
2023-04-25T01:22:17.325Z,86.1
2023-04-25T01:23:16.870Z,86.1
2023-04-25T01:24:17.424Z,86.2
2023-04-25T01:25:16.986Z,86.4
2023-04-25T01:26:16.515Z,86.4
2023-04-25T01:27:17.065Z,86.7
2023-04-25T01:28:16.633Z,86.5
2023-04-25T01:29:17.213Z,86.6
2023-04-25T01:30:16.785Z,86.9
2023-04-25T01:31:17.338Z,86.7
2023-04-25T01:32:17.313Z,87.0
2023-04-25T01:33:16.927Z,86.8
2023-04-25T01:34:17.501Z,87.2
2023-04-25T01:35:17.075Z,87.3
2023-04-25T01:36:16.637Z,87.4
2023-04-25T01:37:17.213Z,87.5
2023-04-25T01:38:16.751Z,87.4
2023-04-25T01:39:17.286Z,87.3
2023-04-25T01:40:16.836Z,87.3
2023-04-25T01:41:17.429Z,87.6
2023-04-25T01:42:17.420Z,87.5
2023-04-25T01:43:16.984Z,87.4
2023-04-25T01:44:16.518Z,87.3
2023-04-25T01:45:17.091Z,87.4
2023-04-25T01:46:16.775Z,87.2
2023-04-25T01:47:17.368Z,87.4
2023-04-25T01:48:16.949Z,87.2
2023-04-25T01:49:17.539Z,87.3
2023-04-25T01:50:17.088Z,86.8
2023-04-25T01:51:16.643Z,86.9
2023-04-25T01:52:16.543Z,87.0
2023-04-25T01:53:17.119Z,87.1
2023-04-25T01:54:16.650Z,86.7
2023-04-25T01:55:17.216Z,86.9
2023-04-25T01:56:16.761Z,87.3
2023-04-25T01:57:17.284Z,87.2
2023-04-25T01:58:16.869Z,87.1
2023-04-25T01:59:17.413Z,87.3
2023-04-25T02:00:17.025Z,87.3
2023-04-25T02:01:16.725Z,87.2
2023-04-25T02:02:17.667Z,87.4
2023-04-25T02:03:17.502Z,87.4
2023-04-25T02:04:17.600Z,87.4
2023-04-25T02:05:17.309Z,87.1
2023-04-25T02:06:16.866Z,87.1
2023-04-25T02:07:17.444Z,87.3
2023-04-25T02:08:17.003Z,86.9
2023-04-25T02:09:16.539Z,87.0
2023-04-25T02:10:17.093Z,87.0
2023-04-25T02:11:16.671Z,86.6
2023-04-25T02:12:16.676Z,86.4
2023-04-25T02:13:17.237Z,86.4
2023-04-25T02:14:16.795Z,86.7
2023-04-25T02:15:17.361Z,86.3
2023-04-25T02:16:17.037Z,86.2
2023-04-25T02:17:16.730Z,86.1
2023-04-25T02:18:17.491Z,85.9
2023-04-25T02:19:17.103Z,86.0
2023-04-25T02:20:16.630Z,86.1
2023-04-25T02:21:17.168Z,86.2
2023-04-25T02:22:17.148Z,86.0
2023-04-25T02:23:16.834Z,86.1
2023-04-25T02:24:17.369Z,86.1
2023-04-25T02:25:16.925Z,85.9
2023-04-25T02:26:17.499Z,86.0
2023-04-25T02:27:17.058Z,85.8
2023-04-25T02:28:16.620Z,86.1
2023-04-25T02:29:17.169Z,86.0
2023-04-25T02:30:16.788Z,86.3
2023-04-25T02:31:17.404Z,86.4
2023-04-25T02:32:17.285Z,86.3
2023-04-25T02:33:16.812Z,86.5
2023-04-25T02:34:17.408Z,86.5
2023-04-25T02:35:16.958Z,86.5
2023-04-25T02:36:17.517Z,86.5
2023-04-25T02:37:17.194Z,86.5
2023-04-25T02:38:16.773Z,86.6
2023-04-25T02:39:17.375Z,86.6
2023-04-25T02:40:16.954Z,86.8
2023-04-25T02:41:17.521Z,86.7
2023-04-25T02:42:16.871Z,86.8
2023-04-25T02:43:17.425Z,86.9
2023-04-25T02:44:17.018Z,87.0
2023-04-25T02:45:16.620Z,86.8
2023-04-25T02:46:32.512Z,86.9
2023-04-25T02:47:17.405Z,87.2
2023-04-25T02:48:17.036Z,87.4
2023-04-25T02:49:16.683Z,87.5
2023-04-25T02:50:17.315Z,87.9
2023-04-25T02:51:16.825Z,87.5
2023-04-25T02:52:16.975Z,87.5
2023-04-25T02:53:16.532Z,87.7
2023-04-25T02:54:17.098Z,87.6
2023-04-25T02:55:16.698Z,87.5
2023-04-25T02:56:17.241Z,87.5
2023-04-25T02:57:16.784Z,87.7
2023-04-25T02:58:17.355Z,87.6
2023-04-25T02:59:16.922Z,87.5
2023-04-25T03:00:17.497Z,87.5
2023-04-25T03:01:17.113Z,87.7
2023-04-25T03:02:17.045Z,87.7
2023-04-25T03:03:16.919Z,87.5
2023-04-25T03:04:16.592Z,87.6
2023-04-25T03:05:17.159Z,87.4
2023-04-25T03:06:16.774Z,87.4
2023-04-25T03:07:17.339Z,87.6
2023-04-25T03:08:16.900Z,87.9
2023-04-25T03:09:17.460Z,87.6
2023-04-25T03:10:17.021Z,87.6
2023-04-25T03:11:16.591Z,87.7
2023-04-25T03:12:17.489Z,87.8
2023-04-25T03:13:17.056Z,87.8
2023-04-25T03:14:16.633Z,87.8
2023-04-25T03:15:17.189Z,87.8
2023-04-25T03:16:16.801Z,88.1
2023-04-25T03:17:17.360Z,87.8
2023-04-25T03:18:16.937Z,87.9
2023-04-25T03:19:17.508Z,87.9
2023-04-25T03:20:17.108Z,88.0
2023-04-25T03:21:16.667Z,88.1
2023-04-25T03:22:17.210Z,88.1
2023-04-25T03:23:16.767Z,88.1
2023-04-25T03:24:17.347Z,88.3
2023-04-25T03:25:16.882Z,88.3
2023-04-25T03:26:17.476Z,88.4
2023-04-25T03:27:17.020Z,88.6
2023-04-25T03:28:16.594Z,88.6
2023-04-25T03:29:17.115Z,88.6
2023-04-25T03:30:16.644Z,88.6
2023-04-25T03:31:17.193Z,88.6
2023-04-25T03:32:17.602Z,88.6
2023-04-25T03:33:17.176Z,88.7
2023-04-25T03:34:16.760Z,88.7
2023-04-25T03:35:17.316Z,88.8
2023-04-25T03:36:16.865Z,88.9
2023-04-25T03:37:17.429Z,88.8
2023-04-25T03:38:16.994Z,89.1
2023-04-25T03:39:16.554Z,89.0
2023-04-25T03:40:17.124Z,89.1
2023-04-25T03:41:16.656Z,89.2
2023-04-25T03:42:17.161Z,89.1
2023-04-25T03:43:17.303Z,89.2
2023-04-25T03:44:17.152Z,89.2
2023-04-25T03:45:16.729Z,89.4
2023-04-25T03:46:17.400Z,89.3
2023-04-25T03:47:16.991Z,89.4
2023-04-25T03:48:16.565Z,89.4
2023-04-25T03:49:19.714Z,89.3
2023-04-25T03:50:17.311Z,89.4
2023-04-25T03:51:16.844Z,89.4
2023-04-25T03:52:16.737Z,89.3
2023-04-25T03:53:17.268Z,89.1
2023-04-25T03:54:16.809Z,89.1
2023-04-25T03:55:17.360Z,89.2
2023-04-25T03:56:16.954Z,89.2
2023-04-25T03:57:17.532Z,89.0
2023-04-25T03:58:17.106Z,89.0
2023-04-25T03:59:16.690Z,89.0
2023-04-25T04:00:17.241Z,88.7
2023-04-25T04:01:16.803Z,88.6
2023-04-25T04:02:16.965Z,88.6
2023-04-25T04:03:17.101Z,88.6
2023-04-25T04:04:17.547Z,88.6
2023-04-25T04:05:17.412Z,88.7
2023-04-25T04:06:17.059Z,88.7
2023-04-25T04:07:16.618Z,88.6
2023-04-25T04:08:17.224Z,88.6
2023-04-25T04:09:16.786Z,88.8
2023-04-25T04:10:17.341Z,88.7
2023-04-25T04:11:16.891Z,88.6
2023-04-25T04:12:16.791Z,88.6
2023-04-25T04:13:17.364Z,88.7
2023-04-25T04:14:16.959Z,88.7
2023-04-25T04:15:17.534Z,88.8
2023-04-25T04:16:17.212Z,88.6
2023-04-25T04:17:16.761Z,88.6
2023-04-25T04:18:17.325Z,88.6
2023-04-25T04:19:16.907Z,88.6
2023-04-25T04:20:17.468Z,88.7
2023-04-25T04:21:17.013Z,88.6
2023-04-25T04:22:17.469Z,88.6
2023-04-25T04:23:16.988Z,88.8
2023-04-25T04:24:16.540Z,88.9
2023-04-25T04:25:17.072Z,88.9
2023-04-25T04:26:16.635Z,88.9
2023-04-25T04:27:17.203Z,88.8
2023-04-25T04:28:16.758Z,88.8
2023-04-25T04:29:17.302Z,88.8
2023-04-25T04:30:16.852Z,88.8
2023-04-25T04:31:17.511Z,88.9
2023-04-25T04:32:17.308Z,88.9
2023-04-25T04:33:16.858Z,88.8
2023-04-25T04:34:17.391Z,88.9
2023-04-25T04:35:16.940Z,88.6
2023-04-25T04:36:17.456Z,88.7
2023-04-25T04:37:17.011Z,88.7
2023-04-25T04:38:16.622Z,88.6
2023-04-25T04:39:17.158Z,88.4
2023-04-25T04:40:16.982Z,88.5
2023-04-25T04:41:16.522Z,88.5
2023-04-25T04:42:17.201Z,88.6
2023-04-25T04:43:16.741Z,88.5
2023-04-25T04:44:17.281Z,88.5
2023-04-25T04:45:16.844Z,88.4
2023-04-25T04:46:17.482Z,88.7
2023-04-25T04:47:17.094Z,88.5
2023-04-25T04:48:16.639Z,88.7
2023-04-25T04:49:17.177Z,89.0
2023-04-25T04:50:16.752Z,89.2
2023-04-25T04:51:17.324Z,88.9
2023-04-25T04:52:17.200Z,88.8
2023-04-25T04:53:16.777Z,89.2
2023-04-25T04:54:17.323Z,89.3
2023-04-25T04:55:16.876Z,89.3
2023-04-25T04:56:17.461Z,88.9
2023-04-25T04:57:17.021Z,89.1
2023-04-25T04:58:19.264Z,89.1
2023-04-25T04:59:16.902Z,89.2
2023-04-25T05:00:17.489Z,88.9
2023-04-25T05:01:17.283Z,88.5
2023-04-25T05:02:16.727Z,88.5
2023-04-25T05:03:17.763Z,88.6
2023-04-25T05:04:17.602Z,88.6
2023-04-25T05:05:17.175Z,88.7
2023-04-25T05:06:16.731Z,88.7
2023-04-25T05:07:17.259Z,88.7
2023-04-25T05:08:16.776Z,89.2
2023-04-25T05:09:17.318Z,89.1
2023-04-25T05:10:16.905Z,88.9
2023-04-25T05:11:17.488Z,88.8
2023-04-25T05:12:17.150Z,89.2
2023-04-25T05:13:16.679Z,89.6
2023-04-25T05:14:17.225Z,89.7
2023-04-25T05:15:16.783Z,89.6
2023-04-25T05:16:17.389Z,89.5
2023-04-25T05:17:16.929Z,89.5
2023-04-25T05:18:17.474Z,89.4
2023-04-25T05:19:17.020Z,89.7
2023-04-25T05:20:16.596Z,89.5
2023-04-25T05:21:17.145Z,89.5
2023-04-25T05:22:16.795Z,89.6
2023-04-25T05:23:17.344Z,89.4
2023-04-25T05:24:16.897Z,89.6
2023-04-25T05:25:17.487Z,89.6
2023-04-25T05:26:17.025Z,89.0
2023-04-25T05:27:16.591Z,89.2
2023-04-25T05:28:17.145Z,89.1
2023-04-25T05:29:16.706Z,89.2
2023-04-25T05:30:17.303Z,89.0
2023-04-25T05:31:16.850Z,88.8
2023-04-25T05:32:16.832Z,88.7
2023-04-25T05:33:17.427Z,88.5
2023-04-25T05:34:16.992Z,88.5
2023-04-25T05:35:16.651Z,88.3
2023-04-25T05:36:17.204Z,87.9
2023-04-25T05:37:16.739Z,88.1
2023-04-25T05:38:17.346Z,88.0
2023-04-25T05:39:16.952Z,88.0
2023-04-25T05:40:17.530Z,88.0
2023-04-25T05:41:17.069Z,88.2
2023-04-25T05:42:16.656Z,87.7
2023-04-25T05:43:17.202Z,87.7
2023-04-25T05:44:16.785Z,87.6
2023-04-25T05:45:17.373Z,87.9
2023-04-25T05:46:16.998Z,87.8
2023-04-25T05:47:16.579Z,87.6
2023-04-25T05:48:17.108Z,87.9
2023-04-25T05:49:19.837Z,87.9
2023-04-25T05:50:17.437Z,87.7
2023-04-25T05:51:16.969Z,88.0
2023-04-25T05:52:17.007Z,88.0
2023-04-25T05:53:16.553Z,88.2
2023-04-25T05:54:17.154Z,88.2
2023-04-25T05:55:16.732Z,88.0
2023-04-25T05:56:17.287Z,88.2
2023-04-25T05:57:16.832Z,88.4
2023-04-25T05:58:17.376Z,88.4
2023-04-25T05:59:16.926Z,88.4
2023-04-25T06:00:17.511Z,88.4
2023-04-25T06:01:17.116Z,88.5
2023-04-25T06:02:17.226Z,88.2
2023-04-25T06:03:21.010Z,88.3
2023-04-25T06:04:17.467Z,88.3
2023-04-25T06:05:17.554Z,88.5
2023-04-25T06:06:17.195Z,88.5
2023-04-25T06:07:16.768Z,88.3
2023-04-25T06:08:17.317Z,88.3
2023-04-25T06:09:16.857Z,88.7
2023-04-25T06:10:17.401Z,88.7
2023-04-25T06:11:16.961Z,88.7
2023-04-25T06:12:17.230Z,88.7
2023-04-25T06:13:16.790Z,88.7
2023-04-25T06:14:17.340Z,89.0
2023-04-25T06:15:28.787Z,89.1
2023-04-25T06:16:16.643Z,89.2
2023-04-25T06:17:17.258Z,89.4
2023-04-25T06:18:16.827Z,89.5
2023-04-25T06:19:17.376Z,89.1
2023-04-25T06:20:16.947Z,89.1
2023-04-25T06:21:17.849Z,89.2
2023-04-25T06:22:17.245Z,89.5
2023-04-25T06:23:16.790Z,89.6
2023-04-25T06:24:17.355Z,89.3
2023-04-25T06:25:16.905Z,89.7
2023-04-25T06:26:17.468Z,90.1
2023-04-25T06:27:17.468Z,90.1
2023-04-25T06:28:17.041Z,90.9
2023-04-25T06:29:16.638Z,90.8
2023-04-25T06:30:17.207Z,90.7
2023-04-25T06:31:16.833Z,90.5
2023-04-25T06:32:16.716Z,90.6
2023-04-25T06:33:17.304Z,90.6
2023-04-25T06:34:16.851Z,90.5
2023-04-25T06:35:17.407Z,90.3
2023-04-25T06:36:16.987Z,90.6
2023-04-25T06:37:16.515Z,90.6
2023-04-25T06:38:17.060Z,90.6
2023-04-25T06:39:16.606Z,90.4
2023-04-25T06:40:17.168Z,90.3
2023-04-25T06:41:16.765Z,90.0
2023-04-25T06:42:16.619Z,90.0
2023-04-25T06:43:17.196Z,89.5
2023-04-25T06:44:16.768Z,89.5
2023-04-25T06:45:17.335Z,89.9
2023-04-25T06:46:16.951Z,90.0
2023-04-25T06:47:16.569Z,89.2
2023-04-25T06:48:17.139Z,89.8
2023-04-25T06:49:16.721Z,89.8
2023-04-25T06:50:17.283Z,89.6
2023-04-25T06:51:16.854Z,89.5
2023-04-25T06:52:17.284Z,88.9
2023-04-25T06:53:16.889Z,89.1
2023-04-25T06:54:17.420Z,89.4
2023-04-25T06:55:17.028Z,89.9
2023-04-25T06:56:16.563Z,89.6
2023-04-25T06:57:17.150Z,89.8
2023-04-25T06:58:16.722Z,89.9
2023-04-25T06:59:17.335Z,90.2
2023-04-25T07:00:16.955Z,90.1
2023-04-25T07:01:16.625Z,89.7
2023-04-25T07:02:17.556Z,89.5
2023-04-25T07:03:17.485Z,89.2
2023-04-25T07:04:18.084Z,88.3
2023-04-25T07:05:19.458Z,88.1
2023-04-25T07:06:17.082Z,88.2
2023-04-25T07:07:16.629Z,88.5
2023-04-25T07:08:17.200Z,87.4
2023-04-25T07:09:16.751Z,87.9
2023-04-25T07:10:17.307Z,88.0
2023-04-25T07:11:16.884Z,88.7
2023-04-25T07:12:17.052Z,89.2
2023-04-25T07:13:16.632Z,89.1
2023-04-25T07:14:17.175Z,89.7
2023-04-25T07:15:16.725Z,90.2
2023-04-25T07:16:17.362Z,90.6
2023-04-25T07:17:16.906Z,90.5
2023-04-25T07:18:17.513Z,90.6
2023-04-25T07:19:17.097Z,90.7
2023-04-25T07:20:16.793Z,90.0
2023-04-25T07:21:17.419Z,90.1
2023-04-25T07:22:16.903Z,89.8
2023-04-25T07:23:17.475Z,89.7
2023-04-25T07:24:17.017Z,90.2
2023-04-25T07:25:16.550Z,91.1
2023-04-25T07:26:17.108Z,90.9
2023-04-25T07:27:16.660Z,90.6
2023-04-25T07:28:19.833Z,89.5
2023-04-25T07:29:17.414Z,88.4
2023-04-25T07:30:16.989Z,89.0
2023-04-25T07:31:16.530Z,89.4
2023-04-25T07:32:16.734Z,90.4
2023-04-25T07:33:17.386Z,90.3
2023-04-25T07:34:16.983Z,89.8
2023-04-25T07:35:16.555Z,90.0
2023-04-25T07:36:17.108Z,90.0
2023-04-25T07:37:16.697Z,89.8
2023-04-25T07:38:17.240Z,89.7
2023-04-25T07:39:16.786Z,89.5
2023-04-25T07:40:17.382Z,89.1
2023-04-25T07:41:16.944Z,89.1
2023-04-25T07:42:17.506Z,89.3
2023-04-25T07:43:17.094Z,89.3
2023-04-25T07:44:16.698Z,89.4
2023-04-25T07:45:17.305Z,89.6
2023-04-25T07:46:16.980Z,88.7
2023-04-25T07:47:16.546Z,89.4
2023-04-25T07:48:17.107Z,89.0
2023-04-25T07:49:16.798Z,88.4
2023-04-25T07:50:17.341Z,88.7
2023-04-25T07:51:16.887Z,88.9
2023-04-25T07:52:16.877Z,88.9
2023-04-25T07:53:17.408Z,88.3
2023-04-25T07:54:16.971Z,88.8
2023-04-25T07:55:16.539Z,87.7
2023-04-25T07:56:17.166Z,87.8
2023-04-25T07:57:16.756Z,87.6
2023-04-25T07:58:17.318Z,88.1
2023-04-25T07:59:16.899Z,87.9
2023-04-25T08:00:17.472Z,88.6
2023-04-25T08:01:17.047Z,88.0
2023-04-25T08:02:16.890Z,87.6
2023-04-25T08:03:18.189Z,87.1
2023-04-25T08:04:17.181Z,85.7
2023-04-25T08:05:22.294Z,85.0
2023-04-25T08:06:17.783Z,85.7
2023-04-25T08:07:17.517Z,85.7
2023-04-25T08:08:17.053Z,84.9
2023-04-25T08:09:16.607Z,84.3
2023-04-25T08:10:17.178Z,83.4
2023-04-25T08:11:16.727Z,83.1
2023-04-25T08:12:16.707Z,83.0
2023-04-25T08:13:17.284Z,81.8
2023-04-25T08:14:16.826Z,83.3
2023-04-25T08:15:17.431Z,84.1
2023-04-25T08:16:17.087Z,84.7
2023-04-25T08:17:16.675Z,85.3
2023-04-25T08:18:18.235Z,84.8
2023-04-25T08:19:16.871Z,84.1
2023-04-25T08:20:17.459Z,83.3
2023-04-25T08:21:16.993Z,83.0
2023-04-25T08:22:16.985Z,82.6
2023-04-25T08:23:16.594Z,81.9
2023-04-25T08:24:17.147Z,82.2
2023-04-25T08:25:16.730Z,82.7
2023-04-25T08:26:17.364Z,82.7
2023-04-25T08:27:16.910Z,83.1
2023-04-25T08:28:17.505Z,82.9
2023-04-25T08:29:17.136Z,83.7
2023-04-25T08:30:16.720Z,82.2
2023-04-25T08:31:17.340Z,82.7
2023-04-25T08:32:17.049Z,82.1
2023-04-25T08:33:16.657Z,82.7
2023-04-25T08:34:17.393Z,82.7
2023-04-25T08:35:17.055Z,81.7
2023-04-25T08:36:38.345Z,81.7
2023-04-25T08:37:16.631Z,82.4
2023-04-25T08:38:17.201Z,82.3
2023-04-25T08:39:16.785Z,82.8
2023-04-25T08:40:17.525Z,82.1
2023-04-25T08:41:17.079Z,81.6
2023-04-25T08:42:16.950Z,81.2
2023-04-25T08:43:17.480Z,81.5
2023-04-25T08:44:17.045Z,81.5
2023-04-25T08:45:16.650Z,81.1
2023-04-25T08:46:17.282Z,81.3
2023-04-25T08:47:16.867Z,81.0
2023-04-25T08:48:17.446Z,81.2
2023-04-25T08:49:17.029Z,81.6
2023-04-25T08:50:16.622Z,81.5
2023-04-25T08:51:17.780Z,81.4
2023-04-25T08:52:16.954Z,81.3
2023-04-25T08:53:16.823Z,81.0
2023-04-25T08:54:35.118Z,80.9
2023-04-25T08:55:17.303Z,81.1
2023-04-25T08:56:16.865Z,79.2
2023-04-25T08:57:17.451Z,78.7
2023-04-25T08:58:17.005Z,78.7
2023-04-25T08:59:16.575Z,78.4
2023-04-25T09:00:17.130Z,75.7
2023-04-25T09:01:16.814Z,74.2
2023-04-25T09:02:16.874Z,76.1
2023-04-25T09:03:17.375Z,73.8
2023-04-25T09:04:17.262Z,72.2
2023-04-25T09:05:17.169Z,73.5
2023-04-25T09:06:17.062Z,72.6
2023-04-25T09:07:16.641Z,73.9
2023-04-25T09:08:17.233Z,74.7
2023-04-25T09:09:16.821Z,76.3
2023-04-25T09:10:17.440Z,75.9
2023-04-25T09:11:17.253Z,76.6
2023-04-25T09:12:17.525Z,75.2
2023-04-25T09:13:17.084Z,74.5
2023-04-25T09:14:16.698Z,73.7
2023-04-25T09:15:20.637Z,72.0
2023-04-25T09:16:17.676Z,71.8
2023-04-25T09:17:17.256Z,71.8
2023-04-25T09:18:16.839Z,72.0
2023-04-25T09:19:17.454Z,71.7
2023-04-25T09:20:17.036Z,69.6
2023-04-25T09:21:16.606Z,70.0
2023-04-25T09:22:17.166Z,68.8
2023-04-25T09:23:16.728Z,69.8
2023-04-25T09:24:17.280Z,69.0
2023-04-25T09:25:16.928Z,71.5
2023-04-25T09:26:17.508Z,71.8
2023-04-25T09:27:17.056Z,69.9
2023-04-25T09:28:16.627Z,69.5
2023-04-25T09:29:17.189Z,68.1
2023-04-25T09:30:16.782Z,67.4
2023-04-25T09:31:17.367Z,68.1
2023-04-25T09:32:17.077Z,67.1
2023-04-25T09:33:16.887Z,67.3
2023-04-25T09:34:17.544Z,66.0
2023-04-25T09:35:17.172Z,68.5
2023-04-25T09:36:16.825Z,67.7
2023-04-25T09:37:17.378Z,67.8
2023-04-25T09:38:16.924Z,67.9
2023-04-25T09:39:17.575Z,67.8
2023-04-25T09:40:17.171Z,67.5
2023-04-25T09:41:18.198Z,63.3
2023-04-25T09:42:16.576Z,64.2
2023-04-25T09:43:17.149Z,65.1
2023-04-25T09:44:16.708Z,66.0
2023-04-25T09:45:17.323Z,65.4
2023-04-25T09:46:17.022Z,66.4
2023-04-25T09:47:16.639Z,66.4
2023-04-25T09:48:17.217Z,66.1
2023-04-25T09:49:16.772Z,64.8
2023-04-25T09:50:17.473Z,66.8
2023-04-25T09:51:17.118Z,66.2
2023-04-25T09:52:17.408Z,66.9
2023-04-25T09:53:16.965Z,67.2
2023-04-25T09:54:16.518Z,63.2
2023-04-25T09:55:17.124Z,60.0
2023-04-25T09:56:16.708Z,58.6
2023-04-25T09:57:17.295Z,58.9
2023-04-25T09:58:16.871Z,59.7
2023-04-25T09:59:17.423Z,57.5
2023-04-25T10:00:17.112Z,59.1
2023-04-25T10:01:16.761Z,59.3
2023-04-25T10:02:17.290Z,58.7
2023-04-25T10:03:17.133Z,57.3
2023-04-25T10:04:17.099Z,56.6
2023-04-25T10:05:17.141Z,56.4
2023-04-25T10:06:16.739Z,56.9
2023-04-25T10:07:17.288Z,58.4
2023-04-25T10:08:16.823Z,56.8
2023-04-25T10:09:17.373Z,57.4
2023-04-25T10:10:16.915Z,54.1
2023-04-25T10:11:17.437Z,55.7
2023-04-25T10:12:17.081Z,54.5
2023-04-25T10:13:16.678Z,54.5
2023-04-25T10:14:17.228Z,53.6
2023-04-25T10:15:16.802Z,55.4
2023-04-25T10:16:17.483Z,51.0
2023-04-25T10:17:17.080Z,52.0
2023-04-25T10:18:16.618Z,53.5
2023-04-25T10:19:17.202Z,52.5
2023-04-25T10:20:17.028Z,51.4
2023-04-25T10:21:16.614Z,50.7
2023-04-25T10:22:17.268Z,52.2
2023-04-25T10:23:16.829Z,51.9
2023-04-25T10:24:17.437Z,53.4
2023-04-25T10:25:16.973Z,53.9
2023-04-25T10:26:16.544Z,54.2
2023-04-25T10:27:17.111Z,53.4
2023-04-25T10:28:16.686Z,53.8
2023-04-25T10:29:17.289Z,55.3
2023-04-25T10:30:17.712Z,53.9
2023-04-25T10:31:17.623Z,53.0
2023-04-25T10:32:17.423Z,54.0
2023-04-25T10:33:17.034Z,50.9
2023-04-25T10:34:16.597Z,51.7
2023-04-25T10:35:17.197Z,53.1
2023-04-25T10:36:16.768Z,57.0
2023-04-25T10:37:17.300Z,57.5
2023-04-25T10:38:16.905Z,56.9
2023-04-25T10:39:17.472Z,55.4
2023-04-25T10:40:17.016Z,55.1
2023-04-25T10:41:16.578Z,53.6
2023-04-25T10:42:17.420Z,56.1
2023-04-25T10:43:16.977Z,54.6
2023-04-25T10:44:16.532Z,54.6
2023-04-25T10:45:17.100Z,55.4
2023-04-25T10:46:16.718Z,55.5
2023-04-25T10:47:17.333Z,54.4
2023-04-25T10:48:16.890Z,55.5
2023-04-25T10:49:17.442Z,55.1
2023-04-25T10:50:17.084Z,55.2
2023-04-25T10:51:16.616Z,53.9
2023-04-25T10:52:17.454Z,55.0
2023-04-25T10:53:17.055Z,55.1
2023-04-25T10:54:16.619Z,55.0
2023-04-25T10:55:17.203Z,53.5
2023-04-25T10:56:16.777Z,54.4
2023-04-25T10:57:17.306Z,56.3
2023-04-25T10:58:16.846Z,56.3
2023-04-25T10:59:17.361Z,56.5
2023-04-25T11:00:16.970Z,56.9
2023-04-25T11:01:16.665Z,57.4
2023-04-25T11:02:16.866Z,58.6
2023-04-25T11:03:18.204Z,58.6
2023-04-25T11:04:17.384Z,59.3
2023-04-25T11:05:19.604Z,59.5
2023-04-25T11:06:16.849Z,59.4
2023-04-25T11:07:17.401Z,59.9
2023-04-25T11:08:16.966Z,60.2
2023-04-25T11:09:16.549Z,61.3
2023-04-25T11:10:17.100Z,61.7
2023-04-25T11:11:16.665Z,61.4
2023-04-25T11:12:16.741Z,61.9
2023-04-25T11:13:17.393Z,62.1
2023-04-25T11:14:16.976Z,61.5
2023-04-25T11:15:16.575Z,61.9
2023-04-25T11:16:27.955Z,61.7
2023-04-25T11:17:17.176Z,60.9
2023-04-25T11:18:16.951Z,61.0
2023-04-25T11:19:16.533Z,61.4
2023-04-25T11:20:17.112Z,61.6
2023-04-25T11:21:16.659Z,61.0
2023-04-25T11:22:17.327Z,62.5
2023-04-25T11:23:16.885Z,62.7
2023-04-25T11:24:17.458Z,62.9
2023-04-25T11:25:17.018Z,62.7
2023-04-25T11:26:16.611Z,62.4
2023-04-25T11:27:17.186Z,61.8
2023-04-25T11:28:16.771Z,61.2
2023-04-25T11:29:17.374Z,61.6
2023-04-25T11:30:16.980Z,61.2
2023-04-25T11:31:16.592Z,61.8
2023-04-25T11:32:19.724Z,61.6
2023-04-25T11:33:16.750Z,61.6
2023-04-25T11:34:17.297Z,60.7
2023-04-25T11:35:16.848Z,60.6
2023-04-25T11:36:17.386Z,60.6
2023-04-25T11:37:16.904Z,60.4
2023-04-25T11:38:17.439Z,60.1
2023-04-25T11:39:17.052Z,60.0
2023-04-25T11:40:16.690Z,58.9
2023-04-25T11:41:17.264Z,59.5
2023-04-25T11:42:16.977Z,58.4
2023-04-25T11:43:17.115Z,59.4
2023-04-25T11:44:17.000Z,59.3
2023-04-25T11:45:16.745Z,57.9
2023-04-25T11:46:17.355Z,57.9
2023-04-25T11:47:17.036Z,58.6
2023-04-25T11:48:17.245Z,58.1
2023-04-25T11:49:17.078Z,58.1
2023-04-25T11:50:16.696Z,57.8
2023-04-25T11:51:17.244Z,57.5
2023-04-25T11:52:16.766Z,58.3
2023-04-25T11:53:17.357Z,59.1
2023-04-25T11:54:17.015Z,58.7
2023-04-25T11:55:16.585Z,58.7
2023-04-25T11:56:17.160Z,59.7
2023-04-25T11:57:16.710Z,59.7
2023-04-25T11:58:17.267Z,60.1
2023-04-25T11:59:16.853Z,58.9
2023-04-25T12:00:19.373Z,59.5
2023-04-25T12:01:16.950Z,59.7
2023-04-25T12:02:16.739Z,59.1
2023-04-25T12:03:17.653Z,59.5
2023-04-25T12:04:17.952Z,59.4
2023-04-25T12:06:18.716Z,59.5
2023-04-25T12:07:17.068Z,59.9
2023-04-25T12:08:16.644Z,59.8
2023-04-25T12:09:17.279Z,59.8
2023-04-25T12:10:16.854Z,59.2
2023-04-25T12:11:17.402Z,59.6
2023-04-25T12:12:17.237Z,59.4
2023-04-25T12:13:16.874Z,59.2
2023-04-25T12:14:17.418Z,58.9
2023-04-25T12:15:16.986Z,59.3
2023-04-25T12:16:16.707Z,58.7
2023-04-25T12:17:17.318Z,59.2
2023-04-25T12:18:17.030Z,58.9
2023-04-25T12:19:16.606Z,59.0
2023-04-25T12:20:17.167Z,59.5
2023-04-25T12:21:16.845Z,59.5
2023-04-25T12:22:16.617Z,59.4
2023-04-25T12:23:17.183Z,58.1
2023-04-25T12:24:16.762Z,58.3
2023-04-25T12:25:17.377Z,58.1
2023-04-25T12:26:16.900Z,59.4
2023-04-25T12:27:17.474Z,59.3
2023-04-25T12:28:17.153Z,59.3
2023-04-25T12:29:16.879Z,59.1
2023-04-25T12:30:17.498Z,59.2
2023-04-25T12:31:17.260Z,59.7
2023-04-25T12:32:16.801Z,59.7
2023-04-25T12:33:17.528Z,59.5
2023-04-25T12:34:17.146Z,59.5
2023-04-25T12:35:16.689Z,59.6
2023-04-25T12:36:17.311Z,59.9
2023-04-25T12:37:16.941Z,60.1
2023-04-25T12:38:17.485Z,60.2
2023-04-25T12:39:17.077Z,60.9
2023-04-25T12:40:16.607Z,61.0
2023-04-25T12:41:17.171Z,62.5
2023-04-25T12:42:16.711Z,63.1
2023-04-25T12:43:17.234Z,61.7
2023-04-25T12:44:16.786Z,62.6
2023-04-25T12:45:17.320Z,62.6
2023-04-25T12:46:16.916Z,61.8
2023-04-25T12:47:17.505Z,62.0
2023-04-25T12:48:17.069Z,61.1
2023-04-25T12:49:19.462Z,60.5
2023-04-25T12:50:17.209Z,60.6
2023-04-25T12:51:16.802Z,60.7
2023-04-25T12:52:16.594Z,60.9
2023-04-25T12:53:17.148Z,61.0
2023-04-25T12:54:16.695Z,60.7
2023-04-25T12:55:17.229Z,60.8
2023-04-25T12:56:16.745Z,60.9
2023-04-25T12:57:17.291Z,61.1
2023-04-25T12:58:16.914Z,61.5
2023-04-25T12:59:17.478Z,61.7
2023-04-25T13:00:17.073Z,61.5
2023-04-25T13:01:16.787Z,61.7
2023-04-25T13:02:16.680Z,61.0
2023-04-25T13:03:17.613Z,61.3
2023-04-25T13:04:18.047Z,61.6
2023-04-25T13:05:16.705Z,61.6
2023-04-25T13:06:17.258Z,61.8
2023-04-25T13:07:16.806Z,61.9
2023-04-25T13:08:17.424Z,61.5
2023-04-25T13:09:17.022Z,61.7
2023-04-25T13:10:16.620Z,61.8
2023-04-25T13:11:17.156Z,62.5
2023-04-25T13:12:16.907Z,62.4
2023-04-25T13:13:17.468Z,61.5
2023-04-25T13:14:17.059Z,61.5
2023-04-25T13:15:16.669Z,61.5
2023-04-25T13:16:17.383Z,61.8
2023-04-25T13:17:16.944Z,61.9
2023-04-25T13:18:17.710Z,62.5
2023-04-25T13:19:17.360Z,61.8